Ana Sayfa
METAR-TAF:

METAR-TAF

Havaalanları :

Garoua, Kamerun

Enlem: 09-20N, Boylam: 013-23E, yükseklik: 242 m

Güncel hava durumu gözlemi

Rapor saat 20:00 UTC de 10 saat ve 50 dakika önce yapıldı.
Rüzgar doğu/kuzeydoğudan 2 kt
Sıcaklık 28°C
Nem 84%
Basınç 1010 hPa
Görüş mesafesi 10 km veya daha fazla
1500 m altında bulut yok ve kümülonimbus yok

METAR: FKKR 182000Z 07002KT CAVOK 28/25 Q1010 NOSIG

Saat: 07:50 (06:50 UTC)

Tahmin

Rapor saat 05:00 UTC de 1 saat ve 50 dakika önce yapıldı.
Ayın 19'si saat 06 UTC'den ayın 19'si saat 18 UTC'ye kadar geçerli Tahmin
Rüzgar batıdan 9 kt
Görüş mesafesi 10 km veya daha fazla
1500 m altında bulut yok ve kümülonimbus yok
Olasılık 40% :
Geçici
ayın 19'si saat 13 UTC'den ayın 19'si saat 18 UTC'ye kadar
Görüş mesafesi: 4000 m
1600 ft yükseklikte parçalı çok bulutlu
2000 ft yükseklikte az bulutlu, Kümülonimbus.
gök gürültülü fırtına, yağmur,

TAF: FKKR 190500Z 1906/1918 28009KT CAVOK PROB40 TEMPO 1913/1918 4000 TSRA BKN016 FEW020CB

4.000'den fazla havaalanı için hava durumu gözlemleri ve tahminleri (METAR ve TAF raporları).

Kullanılabilir istasyonlar harita üzerinde sarı ve kırmızı noktalarla gösterilir.

İstasyonun adını görmek için fareyi noktanın üzerinde gezdirin.

Sonrasında hava gözlem ve tahminlerini görmek için tıklayın.

Haritayı değiştirmek için: yaklaştırmak için siyah artı işaretli yeşil düğmeye ve uzaklaştırmak için de eksi işaretli düğmeye hızla tıklayın; bitişik haritalar için yeşil okları kullanın.


METAR-TAF: